Time;durP1;ratioP1;P1;durP2;ratioP2;P2;SDS_P1;SDS_P2;PMS_P1;PMS_P2;Temp;Humidity;BMP_temperature;BMP_pressure;BME280_temperature;BME280_humidity;BME280_pressure;Samples;Min_cycle;Max_cycle;Signal;HPM_P1;HPM_P2
2023/01/24 00:00:30;;;;;;;119.60;51.00;;;;;;;-0.19;100.00;102267.98;130107;1292;22560;-82
2023/01/24 00:03:31;;;;;;;118.90;45.30;;;;;;;-0.21;100.00;102266.27;130129;1298;22559;-79
2023/01/24 00:06:31;;;;;;;120.90;47.70;;;;;;;-0.21;100.00;102263.16;130051;1300;25294;-85
2023/01/24 00:09:32;;;;;;;116.80;48.60;;;;;;;-0.22;100.00;102263.88;130106;1295;25383;-83
2023/01/24 00:12:32;;;;;;;130.10;49.10;;;;;;;-0.22;100.00;102270.13;129986;1302;22665;-83
2023/01/24 00:15:33;;;;;;;118.00;50.90;;;;;;;-0.21;100.00;102267.66;130083;1297;22572;-82
2023/01/24 00:18:34;;;;;;;127.90;49.70;;;;;;;-0.21;100.00;102266.79;130103;1300;22662;-82
2023/01/24 00:21:34;;;;;;;122.00;50.20;;;;;;;-0.20;100.00;102265.73;129914;1302;22578;-82
2023/01/24 00:24:35;;;;;;;125.50;50.10;;;;;;;-0.21;100.00;102262.65;130122;1301;22555;-83
2023/01/24 00:27:35;;;;;;;118.20;46.80;;;;;;;-0.21;100.00;102262.81;129971;1304;22582;-85
2023/01/24 00:30:36;;;;;;;127.50;50.20;;;;;;;-0.20;100.00;102261.91;129889;1302;24231;-81
2023/01/24 00:33:37;;;;;;;115.50;48.90;;;;;;;-0.21;100.00;102261.04;130248;1295;25319;-82
2023/01/24 00:36:37;;;;;;;114.00;47.90;;;;;;;-0.21;100.00;102262.80;130088;1300;22559;-81
2023/01/24 00:39:38;;;;;;;107.90;49.50;;;;;;;-0.21;100.00;102264.54;130140;1295;22631;-81
2023/01/24 00:42:38;;;;;;;107.10;46.70;;;;;;;-0.20;100.00;102266.94;130128;1301;23767;-80
2023/01/24 00:45:40;;;;;;;120.60;48.50;;;;;;;-0.20;100.00;102271.11;130096;1296;25416;-83
2023/01/24 00:48:40;;;;;;;112.20;47.70;;;;;;;-0.20;100.00;102274.58;130211;1300;24839;-83
2023/01/24 00:51:41;;;;;;;112.00;47.00;;;;;;;-0.20;100.00;102277.54;130063;1301;22586;-82
2023/01/24 00:54:41;;;;;;;106.40;46.60;;;;;;;-0.20;100.00;102280.67;130054;1301;22588;-83
2023/01/24 00:57:42;;;;;;;102.00;45.70;;;;;;;-0.19;100.00;102286.92;130028;1298;22555;-82
2023/01/24 01:00:43;;;;;;;110.20;46.40;;;;;;;-0.19;100.00;102286.92;130271;1301;23471;-84
2023/01/24 01:03:44;;;;;;;95.50;44.80;;;;;;;-0.18;100.00;102287.95;130128;1293;22584;-81
2023/01/24 01:06:45;;;;;;;103.80;46.00;;;;;;;-0.17;100.00;102288.78;129909;1295;22828;-81
2023/01/24 01:09:48;;;;;;;104.80;44.90;;;;;;;-0.18;100.00;102283.40;130126;1293;25390;-82
2023/01/24 01:12:48;;;;;;;100.80;46.00;;;;;;;-0.17;100.00;102286.00;130158;1298;25332;-84
2023/01/24 01:15:49;;;;;;;100.80;44.40;;;;;;;-0.17;100.00;102290.88;129956;1302;22604;-83
2023/01/24 01:18:53;;;;;;;112.20;43.90;;;;;;;-0.17;100.00;102292.42;130019;1292;22556;-84
2023/01/24 01:21:53;;;;;;;105.40;44.40;;;;;;;-0.16;100.00;102286.66;130148;1301;23519;-81
2023/01/24 01:24:54;;;;;;;99.70;47.90;;;;;;;-0.17;100.00;102285.65;130058;1301;22556;-84
2023/01/24 01:27:54;;;;;;;95.90;45.20;;;;;;;-0.16;100.00;102286.84;130067;1292;22579;-84
2023/01/24 01:30:55;;;;;;;87.50;41.10;;;;;;;-0.17;100.00;102290.68;130111;1293;25351;-82
2023/01/24 01:33:55;;;;;;;94.50;42.10;;;;;;;-0.16;100.00;102287.19;129894;1301;25388;-84
2023/01/24 01:36:56;;;;;;;98.50;43.90;;;;;;;-0.16;100.00;102290.14;130017;1301;22618;-81
2023/01/24 01:39:57;;;;;;;105.90;47.10;;;;;;;-0.17;100.00;102293.46;130142;1301;24947;-81
2023/01/24 01:42:57;;;;;;;102.30;43.20;;;;;;;-0.17;100.00;102294.52;130292;1292;22550;-82
2023/01/24 01:46:23;;;;;;;103.40;44.90;;;;;;;-0.16;100.00;102298.30;130135;1292;22793;-83
2023/01/24 01:49:27;;;;;;;106.60;46.70;;;;;;;-0.16;100.00;102296.23;130136;1292;25394;-83
2023/01/24 01:52:32;;;;;;;101.00;45.60;;;;;;;-0.16;100.00;102295.17;130101;1301;22791;-81
2023/01/24 01:55:38;;;;;;;108.40;48.00;;;;;;;-0.16;100.00;102295.34;130057;1302;22666;-82
2023/01/24 01:58:41;;;;;;;112.60;48.90;;;;;;;-0.15;100.00;102288.70;130065;1302;24945;-82
2023/01/24 02:01:43;;;;;;;106.10;47.90;;;;;;;-0.14;100.00;102287.13;130171;1301;25446;-83
2023/01/24 02:04:49;;;;;;;100.10;46.90;;;;;;;-0.13;100.00;102281.69;130115;1302;24234;-85
2023/01/24 02:08:11;;;;;;;113.20;49.70;;;;;;;-0.12;100.00;102280.62;130033;1298;25439;-81
2023/01/24 02:17:53;;;;;;;;;;;;;;;-0.10;100.00;102267.33;130155;1296;22725;-80
2023/01/24 02:20:54;;;;;;;102.80;43.00;;;;;;;-0.07;100.00;102267.09;130136;1297;22696;-80
2023/01/24 02:24:20;;;;;;;105.60;49.00;;;;;;;-0.06;100.00;102265.31;130150;1292;22741;-80
2023/01/24 02:27:21;;;;;;;105.70;46.00;;;;;;;-0.05;100.00;102257.78;130203;1301;24503;-82
2023/01/24 02:30:24;;;;;;;103.40;45.00;;;;;;;-0.03;100.00;102260.17;129912;1298;22789;-81
2023/01/24 02:33:25;;;;;;;;;;;;;;;-0.03;100.00;102259.13;130136;1298;24401;-82
2023/01/24 02:36:37;;;;;;;77.40;34.10;;;;;;;-0.03;100.00;102260.52;129994;1298;22992;-80
2023/01/24 02:39:54;;;;;;;102.60;45.90;;;;;;;-0.02;100.00;102258.22;130039;1298;24319;-81
2023/01/24 02:42:58;;;;;;;100.80;44.50;;;;;;;-0.01;100.00;102255.74;130193;1301;22576;-83
2023/01/24 02:45:59;;;;;;;97.00;44.20;;;;;;;0.00;100.00;102252.60;129889;1298;22571;-83
2023/01/24 02:49:01;;;;;;;97.60;44.60;;;;;;;0.02;100.00;102250.81;129978;1291;24539;-82
2023/01/24 02:55:21;;;;;;;102.10;46.40;;;;;;;0.02;100.00;102248.20;129995;1298;22568;-81
2023/01/24 02:58:21;;;;;;;97.80;45.00;;;;;;;0.03;100.00;102249.56;129970;1294;22559;-82
2023/01/24 03:01:23;;;;;;;93.50;44.30;;;;;;;0.03;100.00;102247.82;129935;1295;25453;-83
2023/01/24 03:04:27;;;;;;;105.70;45.40;;;;;;;0.03;100.00;102246.77;130007;1301;22573;-80
2023/01/24 03:07:41;;;;;;;102.90;47.70;;;;;;;0.02;100.00;102252.54;130017;1298;22566;-81
2023/01/24 03:10:41;;;;;;;106.60;44.20;;;;;;;0.01;100.00;102264.06;129830;1302;25742;-83
2023/01/24 03:37:01;;;;;;;106.50;45.30;;;;;;;0.00;100.00;102273.13;129847;1291;22842;-84
2023/01/24 03:40:06;;;;;;;93.70;44.40;;;;;;;-0.01;100.00;102276.64;129690;1302;22793;-83
2023/01/24 03:43:07;;;;;;;102.20;45.20;;;;;;;-0.01;100.00;102271.06;129959;1302;22563;-82
2023/01/24 03:46:09;;;;;;;102.80;45.70;;;;;;;-0.02;100.00;102273.02;130039;1300;23775;-81
2023/01/24 03:49:17;;;;;;;102.80;44.00;;;;;;;-0.04;100.00;102270.26;129848;1301;22927;-81
2023/01/24 03:52:30;;;;;;;103.20;45.40;;;;;;;-0.03;100.00;102268.87;129837;1298;22678;-82
2023/01/24 03:55:39;;;;;;;100.60;44.70;;;;;;;-0.02;100.00;102269.86;130030;1298;23883;-83
2023/01/24 03:58:40;;;;;;;102.10;45.70;;;;;;;-0.01;100.00;102268.45;129925;1298;22605;-80
2023/01/24 04:01:42;;;;;;;99.60;43.70;;;;;;;-0.01;100.00;102269.15;130001;1302;22934;-84
2023/01/24 04:08:09;;;;;;;106.10;45.50;;;;;;;-0.03;100.00;102279.12;130003;1292;22579;-84
2023/01/24 04:11:12;;;;;;;100.00;43.30;;;;;;;-0.03;100.00;102277.03;129897;1301;22560;-84
2023/01/24 04:14:12;;;;;;;93.70;40.80;;;;;;;-0.03;100.00;102277.04;129895;1304;22606;-83
2023/01/24 04:17:24;;;;;;;105.30;43.70;;;;;;;-0.03;100.00;102275.13;129942;1293;22809;-81
2023/01/24 04:20:29;;;;;;;96.70;44.70;;;;;;;-0.04;100.00;102273.05;129936;1298;22693;-85
2023/01/24 04:23:30;;;;;;;94.50;41.20;;;;;;;-0.03;100.00;102275.66;129994;1301;29061;-84
2023/01/24 04:26:31;;;;;;;104.70;45.90;;;;;;;-0.03;100.00;102272.70;129847;1303;22575;-83
2023/01/24 04:29:32;;;;;;;98.10;42.30;;;;;;;-0.03;100.00;102275.84;130086;1298;22809;-82
2023/01/24 04:32:33;;;;;;;;;;;;;;;-0.04;100.00;102279.16;130162;1293;25351;-83
2023/01/24 04:35:38;;;;;;;103.50;44.20;;;;;;;-0.05;100.00;102282.50;130002;1302;22562;-83
2023/01/24 04:38:40;;;;;;;104.60;45.20;;;;;;;-0.07;100.00;102283.09;129818;1298;24227;-81
2023/01/24 04:41:49;;;;;;;108.90;46.90;;;;;;;-0.09;100.00;102288.55;129921;1301;22559;-81
2023/01/24 04:44:50;;;;;;;102.50;42.20;;;;;;;-0.10;100.00;102291.54;129728;1302;22787;-83
2023/01/24 04:47:50;;;;;;;101.90;46.60;;;;;;;-0.11;100.00;102289.65;130013;1299;22555;-83
2023/01/24 04:50:56;;;;;;;108.50;43.40;;;;;;;-0.12;100.00;102288.09;129742;1293;22628;-80
2023/01/24 04:53:57;;;;;;;104.20;45.20;;;;;;;-0.11;100.00;102290.36;130067;1301;24238;-83
2023/01/24 04:56:59;;;;;;;107.60;46.70;;;;;;;-0.13;100.00;102294.75;130164;1289;22760;-80
2023/01/24 05:00:04;;;;;;;102.60;43.30;;;;;;;-0.14;100.00;102301.73;130109;1302;22890;-83
2023/01/24 05:03:04;;;;;;;96.80;44.00;;;;;;;-0.14;100.00;102299.30;129848;1295;22546;-83
2023/01/24 05:06:05;;;;;;;111.80;45.40;;;;;;;-0.15;100.00;102297.92;130134;1296;22585;-82
2023/01/24 05:09:06;;;;;;;106.10;45.90;;;;;;;-0.15;100.00;102302.09;130123;1293;23781;-85
2023/01/24 05:12:13;;;;;;;108.30;45.40;;;;;;;-0.15;100.00;102299.68;130257;1295;22675;-80
2023/01/24 05:15:15;;;;;;;106.00;43.20;;;;;;;-0.15;100.00;102298.27;129959;1298;24010;-81
2023/01/24 05:18:15;;;;;;;;;;;;;;;-0.15;100.00;102297.07;129948;1302;24722;-84
2023/01/24 05:21:18;;;;;;;110.50;45.00;;;;;;;-0.16;100.00;102300.73;130215;1293;23280;-83
2023/01/24 05:24:20;;;;;;;99.30;42.40;;;;;;;-0.16;100.00;102302.15;130236;1301;22661;-83
2023/01/24 05:27:20;;;;;;;107.40;44.20;;;;;;;-0.16;100.00;102304.73;129967;1298;22577;-85
2023/01/24 05:30:27;;;;;;;111.30;44.60;;;;;;;-0.16;100.00;102300.58;130057;1299;166709;-81
2023/01/24 05:33:30;;;;;;;103.50;43.30;;;;;;;-0.16;100.00;102300.76;130312;1299;22569;-81
2023/01/24 05:36:31;;;;;;;;;;;;;;;-0.16;100.00;102304.77;130088;1299;22548;-81
2023/01/24 05:39:32;;;;;;;;;;;;;;;-0.17;100.00;102309.30;130298;1301;22653;-82
2023/01/24 05:42:33;;;;;;;108.60;42.20;;;;;;;-0.17;100.00;102307.75;130048;1293;22655;-82
2023/01/24 05:45:33;;;;;;;104.30;42.50;;;;;;;-0.17;100.00;102309.30;130460;1293;24847;-80
2023/01/24 05:48:34;;;;;;;100.00;42.90;;;;;;;-0.15;100.00;102306.82;130660;1295;22573;-83
2023/01/24 05:51:35;;;;;;;;;;;;;;;-0.15;100.00;102310.96;129793;1292;22550;-84
2023/01/24 05:54:39;;;;;;;112.00;43.90;;;;;;;-0.13;100.00;102307.96;130069;1294;22561;-82
2023/01/24 05:57:50;;;;;;;;;;;;;;;-0.12;100.00;102311.77;130109;1298;22547;-83
2023/01/24 06:01:26;;;;;;;113.10;44.80;;;;;;;-0.11;100.00;102313.30;130029;1295;25265;-83
2023/01/24 06:04:30;;;;;;;109.20;43.90;;;;;;;-0.10;100.00;102319.89;129781;1292;23089;-81
2023/01/24 06:07:31;;;;;;;102.10;44.00;;;;;;;-0.09;100.00;102324.56;130204;1298;22658;-80
2023/01/24 06:10:31;;;;;;;102.20;42.30;;;;;;;-0.09;100.00;102328.71;129985;1301;22810;-81
2023/01/24 06:13:37;;;;;;;104.40;43.70;;;;;;;-0.05;100.00;102330.54;130140;1300;22655;-82
2023/01/24 06:16:39;;;;;;;109.40;43.70;;;;;;;-0.04;100.00;102336.23;129943;1307;22618;-80
2023/01/24 06:19:40;;;;;;;99.90;44.30;;;;;;;-0.04;100.00;102340.05;130515;1302;22573;-81
2023/01/24 06:22:50;;;;;;;101.70;43.50;;;;;;;-0.03;100.00;102338.12;130836;1286;22804;-80
2023/01/24 06:25:52;;;;;;;107.30;43.60;;;;;;;-0.01;100.00;102340.67;129918;1305;25491;-80
2023/01/24 06:28:53;;;;;;;105.20;43.90;;;;;;;0.01;100.00;102345.67;130051;1289;24346;-81
2023/01/24 06:32:10;;;;;;;;;;;;;;;0.02;100.00;102342.34;129942;1302;24278;-81
2023/01/24 06:35:46;;;;;;;97.00;42.70;;;;;;;0.04;100.00;102349.09;130270;1301;25377;-81
2023/01/24 06:38:47;;;;;;;100.60;41.90;;;;;;;0.04;100.00;102354.48;129444;1302;25335;-80
2023/01/24 06:41:48;;;;;;;104.20;43.00;;;;;;;0.03;100.00;102352.58;130264;1301;22619;-81
2023/01/24 06:44:49;;;;;;;110.40;43.80;;;;;;;0.03;100.00;102359.36;130048;1301;22582;-81
2023/01/24 06:47:50;;;;;;;104.20;43.80;;;;;;;0.02;100.00;102363.05;130098;1302;22702;-81
2023/01/24 06:50:50;;;;;;;100.60;42.40;;;;;;;0.02;100.00;102365.67;130119;1301;22691;-81
2023/01/24 06:53:51;;;;;;;99.40;44.80;;;;;;;0.02;100.00;102368.26;130140;1287;22595;-82
2023/01/24 06:56:51;;;;;;;105.00;45.40;;;;;;;0.01;100.00;102371.07;130146;1301;25379;-81
2023/01/24 06:59:52;;;;;;;103.00;43.70;;;;;;;0.01;100.00;102371.96;130030;1301;25280;-81
2023/01/24 07:03:00;;;;;;;112.70;45.00;;;;;;;0.01;100.00;102377.86;129973;1295;24742;-81
2023/01/24 07:06:01;;;;;;;105.50;44.50;;;;;;;0.01;100.00;102376.65;130188;1295;24237;-80
2023/01/24 07:09:01;;;;;;;111.10;46.30;;;;;;;-0.01;100.00;102377.38;130085;1301;22569;-81
2023/01/24 07:12:02;;;;;;;107.70;43.90;;;;;;;-0.00;100.00;102378.95;130192;1301;25391;-81
2023/01/24 07:15:02;;;;;;;102.40;42.20;;;;;;;-0.01;100.00;102374.42;130092;1302;22570;-81
2023/01/24 07:18:10;;;;;;;;;;;;;;;-0.01;100.00;102379.64;130139;1301;25262;-80
2023/01/24 07:21:12;;;;;;;105.00;43.20;;;;;;;-0.01;100.00;102378.26;130094;1297;22675;-80
2023/01/24 07:24:16;;;;;;;105.70;43.20;;;;;;;-0.01;100.00;102378.09;130116;1301;25323;-81
2023/01/24 07:27:17;;;;;;;113.00;45.70;;;;;;;0.01;100.00;102376.11;129906;1301;22563;-80
2023/01/24 07:30:17;;;;;;;;;;;;;;;0.03;100.00;102380.61;130105;1293;24381;-82
2023/01/24 07:33:18;;;;;;;112.90;45.10;;;;;;;0.05;100.00;102373.57;130534;1298;22573;-81
2023/01/24 07:36:19;;;;;;;113.70;45.70;;;;;;;0.08;100.00;102379.58;130180;1301;24948;-80
2023/01/24 07:39:19;;;;;;;117.50;44.80;;;;;;;0.09;100.00;102380.77;130173;1302;24482;-81
2023/01/24 07:42:20;;;;;;;105.80;45.50;;;;;;;0.11;100.00;102385.39;130214;1302;22766;-80
2023/01/24 07:45:21;;;;;;;109.60;45.50;;;;;;;0.13;100.00;102383.06;130205;1301;22571;-81
2023/01/24 07:48:22;;;;;;;105.30;44.00;;;;;;;0.16;100.00;102385.23;130208;1301;23911;-80
2023/01/24 07:51:23;;;;;;;108.80;47.70;;;;;;;0.18;100.00;102387.27;130111;1301;23956;-82
2023/01/24 07:54:23;;;;;;;106.20;45.30;;;;;;;0.21;100.00;102389.11;130246;1302;22606;-80
2023/01/24 07:57:24;;;;;;;119.00;47.60;;;;;;;0.22;100.00;102387.69;130126;1301;22592;-80
2023/01/24 08:00:27;;;;;;;109.50;45.10;;;;;;;0.24;100.00;102389.03;130158;1297;22669;-80
2023/01/24 08:03:28;;;;;;;115.50;47.40;;;;;;;0.27;100.00;102384.05;129918;1300;22570;-80
2023/01/24 08:06:29;;;;;;;114.60;47.00;;;;;;;0.29;100.00;102381.75;130207;1301;22579;-82
2023/01/24 08:09:30;;;;;;;113.80;45.40;;;;;;;0.31;100.00;102379.77;130177;1301;24291;-80
2023/01/24 08:12:30;;;;;;;111.40;46.80;;;;;;;0.34;100.00;102378.30;130009;1295;22605;-82
2023/01/24 08:15:31;;;;;;;118.40;46.90;;;;;;;0.37;100.00;102382.72;130158;1301;24267;-80
2023/01/24 08:18:32;;;;;;;110.50;47.20;;;;;;;0.39;100.00;102380.73;130311;1286;22559;-80
2023/01/24 08:21:32;;;;;;;;;;;;;;;0.40;100.00;102384.56;130517;1298;24295;-80
2023/01/24 08:24:33;;;;;;;108.00;45.70;;;;;;;0.44;100.00;102387.41;130103;1300;23443;-81
2023/01/24 08:27:33;;;;;;;;;;;;;;;0.48;100.00;102387.27;130106;1301;22534;-82
2023/01/24 08:30:34;;;;;;;110.10;46.70;;;;;;;0.53;100.00;102388.18;129880;1302;25382;-80
2023/01/24 08:33:37;;;;;;;98.50;41.30;;;;;;;0.55;100.00;102392.98;129988;1292;22697;-80
2023/01/24 08:36:38;;;;;;;101.80;43.80;;;;;;;0.57;100.00;102396.57;130194;1300;25313;-80
2023/01/24 08:39:41;;;;;;;104.30;44.20;;;;;;;0.59;100.00;102400.86;130224;1292;26813;-80
2023/01/24 08:42:41;;;;;;;107.70;45.20;;;;;;;0.61;100.00;102399.74;129911;1298;24412;-79
2023/01/24 08:45:42;;;;;;;108.50;44.70;;;;;;;0.64;100.00;102394.80;130074;1292;23032;-80
2023/01/24 08:48:42;;;;;;;94.80;42.60;;;;;;;0.69;100.00;102402.48;130153;1301;22569;-80
2023/01/24 08:51:43;;;;;;;96.40;43.50;;;;;;;0.70;100.00;102400.19;130081;1296;23070;-80
2023/01/24 08:54:43;;;;;;;97.70;42.90;;;;;;;0.72;100.00;102402.05;130154;1301;22576;-82
2023/01/24 08:57:44;;;;;;;95.80;40.90;;;;;;;0.69;100.00;102403.88;130200;1292;25485;-83
2023/01/24 09:00:45;;;;;;;102.50;42.80;;;;;;;0.72;100.00;102410.22;130126;1301;25278;-81
2023/01/24 09:03:45;;;;;;;94.40;43.60;;;;;;;0.74;100.00;102412.60;130122;1286;25630;-81
2023/01/24 09:06:46;;;;;;;98.00;43.20;;;;;;;0.77;100.00;102415.98;130211;1300;25462;-81
2023/01/24 09:09:47;;;;;;;99.90;43.70;;;;;;;0.80;100.00;102416.94;130108;1298;22594;-82
2023/01/24 09:12:47;;;;;;;93.10;43.10;;;;;;;0.83;100.00;102417.38;130012;1298;22570;-80
2023/01/24 09:15:48;;;;;;;103.10;44.10;;;;;;;0.85;100.00;102417.30;130143;1301;22573;-81
2023/01/24 09:18:50;;;;;;;94.30;41.60;;;;;;;0.88;100.00;102415.67;130253;1296;24444;-81
2023/01/24 09:21:54;;;;;;;93.30;44.00;;;;;;;0.90;100.00;102419.23;130324;1302;24466;-81
2023/01/24 09:24:59;;;;;;;94.80;42.90;;;;;;;0.92;100.00;102419.20;130532;1286;22572;-81
2023/01/24 09:28:05;;;;;;;97.10;44.80;;;;;;;0.94;100.00;102418.95;129830;1292;22521;-82
2023/01/24 09:31:10;;;;;;;91.70;42.80;;;;;;;0.99;100.00;102415.67;130150;1300;22593;-80
2023/01/24 09:34:22;;;;;;;85.50;40.60;;;;;;;1.06;100.00;102417.18;131029;1301;22677;-82
2023/01/24 09:37:23;;;;;;;88.40;43.00;;;;;;;1.14;100.00;102414.46;129467;1302;22994;-80
2023/01/24 09:40:35;;;;;;;87.70;40.80;;;;;;;1.18;100.00;102411.58;129832;1302;23029;-80
2023/01/24 09:43:50;;;;;;;83.70;38.40;;;;;;;1.23;100.00;102411.39;130187;1296;22595;-81
2023/01/24 09:46:54;;;;;;;83.30;40.50;;;;;;;1.25;100.00;102408.89;130148;1301;24303;-80
2023/01/24 09:49:59;;;;;;;80.40;41.20;;;;;;;1.26;100.00;102410.92;130156;1298;22690;-81
2023/01/24 09:52:59;;;;;;;82.70;38.50;;;;;;;1.30;100.00;102411.49;130107;1300;24257;-81
2023/01/24 09:56:02;;;;;;;84.50;41.00;;;;;;;1.33;100.00;102410.19;129993;1298;22578;-80
2023/01/24 09:59:12;;;;;;;80.90;39.20;;;;;;;1.34;100.00;102408.05;129866;1297;25567;-81
2023/01/24 10:02:19;;;;;;;79.60;38.70;;;;;;;1.35;100.00;102406.12;130176;1292;25513;-82
2023/01/24 10:05:22;;;;;;;81.20;39.50;;;;;;;1.36;100.00;102400.48;129872;1301;22580;-81
2023/01/24 10:08:51;;;;;;;86.10;38.90;;;;;;;1.39;100.00;102398.67;130216;1297;22788;-81
2023/01/24 10:12:15;;;;;;;81.20;40.30;;;;;;;1.42;100.00;102390.54;130181;1293;25307;-80
2023/01/24 10:15:43;;;;;;;84.10;40.50;;;;;;;1.47;100.00;102389.31;129949;1292;22553;-81
2023/01/24 10:19:21;;;;;;;79.80;40.10;;;;;;;1.51;100.00;102383.97;130129;1293;22589;-82
2023/01/24 10:22:40;;;;;;;91.10;41.90;;;;;;;1.56;100.00;102382.52;130153;1300;25323;-80
2023/01/24 10:25:54;;;;;;;88.00;43.40;;;;;;;1.60;100.00;102384.48;130096;1300;22577;-80
2023/01/24 10:29:26;;;;;;;89.20;43.20;;;;;;;1.64;100.00;102381.05;130107;1301;23691;-81
2023/01/24 10:32:33;;;;;;;94.20;44.00;;;;;;;1.69;100.00;102381.02;130123;1295;22563;-80
2023/01/24 10:35:43;;;;;;;89.10;43.10;;;;;;;1.74;100.00;102376.48;130194;1301;23596;-81
2023/01/24 10:38:44;;;;;;;85.90;42.50;;;;;;;1.72;100.00;102379.36;130206;1301;22612;-80
2023/01/24 10:41:45;;;;;;;94.60;44.10;;;;;;;1.70;100.00;102376.48;130240;1298;22563;-80
2023/01/24 10:44:47;;;;;;;91.90;43.00;;;;;;;1.72;100.00;102372.73;130115;1293;22554;-80
2023/01/24 10:47:59;;;;;;;86.30;41.10;;;;;;;1.76;100.00;102370.15;130143;1301;24625;-80
2023/01/24 10:51:14;;;;;;;74.20;40.20;;;;;;;1.76;100.00;102366.85;130204;1302;22604;-81
2023/01/24 10:54:22;;;;;;;84.80;40.30;;;;;;;1.82;100.00;102367.52;130145;1298;24277;-81
2023/01/24 10:57:42;;;;;;;76.70;36.80;;;;;;;1.89;100.00;102363.21;130146;1298;22551;-80
2023/01/24 11:00:43;;;;;;;77.60;37.50;;;;;;;1.94;100.00;102361.80;130025;1292;22572;-80
2023/01/24 11:03:46;;;;;;;76.10;38.20;;;;;;;1.98;100.00;102358.52;130299;1301;22753;-81
2023/01/24 11:06:49;;;;;;;81.70;38.40;;;;;;;2.01;100.00;102357.89;130139;1295;24401;-81
2023/01/24 11:09:49;;;;;;;79.90;41.20;;;;;;;2.05;100.00;102360.38;129718;1302;24226;-80
2023/01/24 11:13:00;;;;;;;93.20;43.70;;;;;;;2.06;100.00;102359.11;130167;1293;25401;-81
2023/01/24 11:16:17;;;;;;;92.30;41.80;;;;;;;2.02;100.00;102352.62;130176;1301;24419;-80
2023/01/24 11:19:31;;;;;;;81.30;38.60;;;;;;;2.01;100.00;102349.67;130156;1298;22630;-81
2023/01/24 11:22:35;;;;;;;89.20;39.80;;;;;;;2.02;100.00;102348.63;130165;1297;22745;-80
2023/01/24 11:25:36;;;;;;;84.90;40.30;;;;;;;2.06;100.00;102353.31;130268;1292;24265;-82
2023/01/24 11:28:37;;;;;;;85.50;40.70;;;;;;;2.10;100.00;102348.47;130285;1301;22677;-79
2023/01/24 11:31:43;;;;;;;83.10;40.50;;;;;;;2.13;100.00;102348.00;130433;1301;22576;-82
2023/01/24 11:35:11;;;;;;;80.40;40.70;;;;;;;2.09;100.00;102348.86;130982;1300;22620;-80
2023/01/24 11:38:12;;;;;;;84.40;41.40;;;;;;;2.06;100.00;102350.57;129745;1292;23046;-82
2023/01/24 11:41:28;;;;;;;83.50;40.60;;;;;;;2.07;100.00;102349.30;130222;1295;22559;-83
2023/01/24 11:44:34;;;;;;;77.90;38.90;;;;;;;2.09;100.00;102341.88;129973;1292;24119;-80
2023/01/24 11:48:19;;;;;;;82.10;39.20;;;;;;;2.11;100.00;102342.35;130167;1292;25538;-81
2023/01/24 11:52:21;;;;;;;85.00;40.30;;;;;;;2.10;100.00;102344.80;130073;1295;22795;-80
2023/01/24 11:55:40;;;;;;;81.60;39.60;;;;;;;2.15;100.00;102348.98;129111;1292;22605;-80
2023/01/24 11:59:18;;;;;;;74.80;37.90;;;;;;;2.22;100.00;102347.48;130299;1293;24260;-80
2023/01/24 12:02:41;;;;;;;77.70;36.80;;;;;;;2.30;100.00;102344.60;130197;1292;23187;-80
2023/01/24 12:05:48;;;;;;;72.50;37.80;;;;;;;2.34;100.00;102340.24;130105;1292;23730;-80
2023/01/24 12:08:54;;;;;;;73.20;37.30;;;;;;;2.36;100.00;102337.35;130079;1291;22573;-80
2023/01/24 12:12:19;;;;;;;79.20;38.30;;;;;;;2.37;100.00;102338.55;130040;1292;23370;-81
2023/01/24 12:15:25;;;;;;;75.80;38.90;;;;;;;2.38;100.00;102334.64;130129;1296;22569;-80
2023/01/24 12:18:39;;;;;;;72.50;36.80;;;;;;;2.40;100.00;102333.16;130165;1292;22598;-81
2023/01/24 12:21:43;;;;;;;78.70;39.10;;;;;;;2.38;100.00;102334.30;130157;1292;23329;-80
2023/01/24 12:24:53;;;;;;;81.40;40.20;;;;;;;2.39;100.00;102336.20;129703;1296;23909;-81
2023/01/24 12:27:58;;;;;;;78.10;38.70;;;;;;;2.39;100.00;102333.04;130012;1292;25532;-81
2023/01/24 12:31:02;;;;;;;71.20;36.20;;;;;;;2.37;99.98;102333.30;130101;1292;22691;-80
2023/01/24 12:34:08;;;;;;;77.20;38.10;;;;;;;2.34;100.00;102331.00;130038;1292;22578;-82
2023/01/24 12:37:38;;;;;;;72.10;36.10;;;;;;;2.34;100.00;102327.85;130178;1298;22678;-80
2023/01/24 12:40:52;;;;;;;71.70;35.30;;;;;;;2.32;100.00;102335.94;130005;1301;22582;-81
2023/01/24 12:44:05;;;;;;;77.50;37.00;;;;;;;2.30;99.97;102336.22;130148;1292;24244;-81
2023/01/24 12:47:20;;;;;;;87.60;40.90;;;;;;;2.29;100.00;102336.77;130036;1300;23286;-82
2023/01/24 12:50:21;;;;;;;80.90;37.50;;;;;;;2.26;100.00;102334.77;130026;1292;25529;-81
2023/01/24 12:53:32;;;;;;;80.20;38.60;;;;;;;2.22;99.92;102327.77;130080;1292;25320;-82
2023/01/24 12:56:47;;;;;;;88.20;41.70;;;;;;;2.21;100.00;102331.45;130048;1292;23921;-80
2023/01/24 12:59:51;;;;;;;83.30;41.40;;;;;;;2.20;99.97;102333.44;130104;1292;22582;-80
2023/01/24 13:03:22;;;;;;;90.10;41.00;;;;;;;2.16;99.95;102329.39;130164;1299;24269;-81
2023/01/24 13:06:29;;;;;;;;;;;;;;;2.13;99.94;102329.69;130218;1301;22649;-81
2023/01/24 13:09:57;;;;;;;84.00;40.10;;;;;;;2.14;99.95;102332.80;130043;1296;24300;-81
2023/01/24 13:13:00;;;;;;;85.60;39.90;;;;;;;2.10;99.98;102330.13;130103;1291;24350;-81
2023/01/24 13:16:32;;;;;;;86.80;40.30;;;;;;;2.05;99.79;102330.33;130430;1300;26643;-81
2023/01/24 13:19:41;;;;;;;89.30;42.60;;;;;;;2.04;99.98;102326.20;130137;1295;22666;-80
2023/01/24 13:22:45;;;;;;;93.30;44.20;;;;;;;2.06;100.00;102326.12;130113;1292;24287;-81
2023/01/24 13:26:04;;;;;;;86.70;40.90;;;;;;;2.06;100.00;102321.05;130108;1297;22683;-80
2023/01/24 13:29:26;;;;;;;86.20;41.40;;;;;;;2.05;100.00;102326.66;130087;1300;23907;-81
2023/01/24 13:32:27;;;;;;;87.30;41.40;;;;;;;2.02;100.00;102320.85;130222;1292;24389;-81
2023/01/24 13:35:34;;;;;;;86.90;40.50;;;;;;;2.00;100.00;102316.56;130155;1298;24237;-82
2023/01/24 13:38:44;;;;;;;91.50;41.80;;;;;;;2.00;100.00;102317.27;129684;1297;24376;-82
2023/01/24 13:42:00;;;;;;;89.90;40.40;;;;;;;2.00;100.00;102322.85;130044;1296;22563;-81
2023/01/24 13:45:26;;;;;;;83.50;40.90;;;;;;;1.97;99.99;102328.16;130065;1301;22615;-80
2023/01/24 13:48:39;;;;;;;82.50;39.80;;;;;;;1.99;100.00;102322.35;130081;1295;23026;-81
2023/01/24 13:52:00;;;;;;;90.10;43.10;;;;;;;1.99;100.00;102322.02;130139;1292;22563;-81
2023/01/24 13:55:32;;;;;;;94.00;43.60;;;;;;;1.99;100.00;102324.64;129659;1301;22576;-81
2023/01/24 13:58:34;;;;;;;90.70;41.70;;;;;;;1.97;100.00;102325.74;130143;1292;22651;-81
2023/01/24 14:01:47;;;;;;;91.10;41.70;;;;;;;1.96;100.00;102335.06;130318;1292;26759;-80
2023/01/24 14:04:53;;;;;;;92.80;42.70;;;;;;;1.96;100.00;102337.14;129981;1301;22609;-81
2023/01/24 14:08:40;;;;;;;94.60;45.70;;;;;;;1.90;100.00;102331.58;130184;1300;22647;-81
2023/01/24 14:11:58;;;;;;;93.40;42.90;;;;;;;1.88;100.00;102333.93;129931;1298;24439;-81
2023/01/24 14:15:23;;;;;;;98.20;45.30;;;;;;;1.86;100.00;102330.36;129982;1292;23163;-81
2023/01/24 14:18:38;;;;;;;93.40;44.00;;;;;;;1.87;100.00;102332.42;130185;1300;25431;-81
2023/01/24 14:22:00;;;;;;;90.50;44.60;;;;;;;1.87;100.00;102337.13;130088;1292;24410;-80
2023/01/24 14:25:21;;;;;;;92.60;43.00;;;;;;;1.87;100.00;102342.89;130233;1300;22741;-80
2023/01/24 14:28:25;;;;;;;;;;;;;;;1.84;100.00;102340.36;130092;1299;24098;-81
2023/01/24 14:31:34;;;;;;;90.00;42.10;;;;;;;1.80;100.00;102342.25;130146;1298;22671;-80